createdAt,value
2023-03-22T04:44:23.775Z,8.14
2023-03-22T04:47:27.340Z,8.14
2023-03-22T04:50:30.121Z,7.62
2023-03-22T04:53:38.689Z,7.58
2023-03-22T04:56:41.561Z,7.63
2023-03-22T04:59:44.660Z,7.67
2023-03-22T05:02:47.388Z,7.69
2023-03-22T05:05:56.211Z,7.74
2023-03-22T05:09:00.946Z,7.83
2023-03-22T05:12:04.056Z,7.89
2023-03-22T05:15:08.821Z,7.85
2023-03-22T05:18:14.385Z,7.77
2023-03-22T05:21:22.028Z,7.77
2023-03-22T05:24:25.690Z,7.84
2023-03-22T05:27:31.701Z,7.90
2023-03-22T05:30:35.340Z,8.17
2023-03-22T05:33:38.121Z,8.34
2023-03-22T05:36:41.000Z,8.52
2023-03-22T05:39:44.022Z,8.61
2023-03-22T05:42:47.108Z,8.76
2023-03-22T05:45:50.988Z,9.05
2023-03-22T05:48:54.792Z,9.20
2023-03-22T05:51:58.561Z,9.30
2023-03-22T05:55:02.248Z,9.58
2023-03-22T05:58:05.743Z,9.93
2023-03-22T06:01:12.595Z,10.30
2023-03-22T06:04:18.768Z,10.61
2023-03-22T06:07:21.901Z,10.83
2023-03-22T06:10:26.921Z,11.14
2023-03-22T06:13:29.800Z,11.22
2023-03-22T06:16:32.963Z,11.42
2023-03-22T06:19:35.646Z,11.83
2023-03-22T06:22:39.332Z,11.94
2023-03-22T06:25:42.383Z,11.97
2023-03-22T06:28:45.456Z,12.37
2023-03-22T06:31:48.377Z,12.68
2023-03-22T06:34:51.145Z,12.94
2023-03-22T06:37:54.806Z,13.11
2023-03-22T06:40:57.663Z,13.34
2023-03-22T06:44:02.793Z,13.59
2023-03-22T06:47:10.913Z,13.90
2023-03-22T06:50:15.329Z,13.83
2023-03-22T06:53:22.968Z,13.97
2023-03-22T06:56:26.148Z,15.11
2023-03-22T06:59:29.316Z,15.05
2023-03-22T07:02:32.016Z,14.86
2023-03-22T07:05:38.896Z,14.50
2023-03-22T07:08:42.103Z,14.25
2023-03-22T07:11:45.812Z,14.06
2023-03-22T07:14:48.266Z,13.87
2023-03-22T07:17:52.240Z,13.83
2023-03-22T07:20:55.738Z,13.80
2023-03-22T07:23:58.738Z,13.95
2023-03-22T07:27:02.137Z,14.27
2023-03-22T07:30:07.215Z,14.47
2023-03-22T07:33:12.087Z,14.73
2023-03-22T07:36:16.222Z,15.16
2023-03-22T07:39:18.627Z,15.81
2023-03-22T07:42:23.537Z,15.62
2023-03-22T07:45:29.838Z,15.16
2023-03-22T07:48:36.102Z,15.03
2023-03-22T07:51:39.614Z,15.19
2023-03-22T07:54:42.494Z,15.49
2023-03-22T07:57:45.031Z,15.61
2023-03-22T08:00:49.702Z,15.89
2023-03-22T08:03:55.978Z,15.99
2023-03-22T08:07:01.154Z,15.94
2023-03-22T08:10:04.884Z,15.63
2023-03-22T08:13:07.724Z,15.36
2023-03-22T08:16:10.661Z,15.50
2023-03-22T08:19:13.563Z,15.42
2023-03-22T08:22:16.854Z,15.55
2023-03-22T08:25:22.398Z,15.73
2023-03-22T08:28:26.721Z,15.79
2023-03-22T08:31:29.592Z,15.71
2023-03-22T08:34:36.993Z,15.83
2023-03-22T08:37:40.082Z,15.83
2023-03-22T08:40:48.037Z,16.10
2023-03-22T08:43:53.223Z,16.37
2023-03-22T08:46:56.056Z,16.65
2023-03-22T08:49:58.817Z,16.57
2023-03-22T08:53:03.421Z,16.43
2023-03-22T08:56:07.808Z,16.24
2023-03-22T08:59:11.222Z,16.19
2023-03-22T09:02:13.909Z,16.03
2023-03-22T09:05:17.451Z,16.14
2023-03-22T09:08:21.024Z,16.27
2023-03-22T09:11:24.645Z,16.21
2023-03-22T09:14:27.133Z,16.39
2023-03-22T09:17:30.427Z,16.68
2023-03-22T09:20:33.116Z,17.11
2023-03-22T09:23:38.103Z,16.99
2023-03-22T09:26:41.496Z,17.10
2023-03-22T09:29:44.640Z,17.11
2023-03-22T09:32:48.270Z,16.81
2023-03-22T09:35:54.378Z,16.89
2023-03-22T09:38:57.341Z,16.90
2023-03-22T09:42:15.447Z,17.25
2023-03-22T09:45:22.949Z,17.14
2023-03-22T09:48:39.054Z,16.90
2023-03-22T09:51:45.502Z,16.55
2023-03-22T09:54:49.586Z,16.40
2023-03-22T09:58:12.037Z,16.35
2023-03-22T10:01:21.550Z,16.11
2023-03-22T10:04:46.653Z,16.16
2023-03-22T10:08:23.455Z,16.24
2023-03-22T10:11:46.234Z,16.27
2023-03-22T10:15:14.099Z,16.32
2023-03-22T10:18:24.895Z,16.32
2023-03-22T10:21:27.476Z,16.30
2023-03-22T10:24:35.534Z,16.40
2023-03-22T10:27:39.104Z,16.14
2023-03-22T10:30:43.326Z,15.90
2023-03-22T10:33:58.615Z,15.79
2023-03-22T10:37:06.325Z,15.88
2023-03-22T10:40:18.660Z,15.87
2023-03-22T10:43:28.286Z,15.78
2023-03-22T10:46:38.871Z,15.67
2023-03-22T10:49:54.420Z,15.56
2023-03-22T10:53:24.724Z,15.60
2023-03-22T10:56:27.561Z,15.58
2023-03-22T10:59:48.606Z,15.60
2023-03-22T11:02:54.050Z,15.68
2023-03-22T11:06:14.596Z,15.58
2023-03-22T11:09:23.625Z,15.68
2023-03-22T11:12:26.146Z,15.64
2023-03-22T11:15:31.342Z,15.53
2023-03-22T11:18:35.205Z,15.49
2023-03-22T11:21:41.847Z,15.53
2023-03-22T11:24:47.254Z,15.52
2023-03-22T11:27:56.983Z,15.47
2023-03-22T11:31:02.058Z,15.20
2023-03-22T11:34:16.898Z,15.20
2023-03-22T11:37:19.461Z,15.26
2023-03-22T11:40:27.718Z,15.32
2023-03-22T11:43:39.600Z,15.39
2023-03-22T11:46:54.988Z,15.52
2023-03-22T11:49:57.481Z,15.52
2023-03-22T11:53:06.807Z,15.56
2023-03-22T11:56:13.469Z,15.73
2023-03-22T11:59:22.125Z,15.98
2023-03-22T12:02:35.883Z,16.22
2023-03-22T12:05:42.604Z,16.34
2023-03-22T12:08:52.253Z,16.46
2023-03-22T12:11:58.736Z,16.68
2023-03-22T12:15:05.464Z,16.99
2023-03-22T12:18:16.949Z,17.30
2023-03-22T12:21:19.623Z,17.47
2023-03-22T12:24:27.996Z,17.70
2023-03-22T12:27:40.939Z,17.65
2023-03-22T12:30:48.047Z,17.88
2023-03-22T12:33:56.600Z,18.08
2023-03-22T12:37:03.865Z,18.20
2023-03-22T12:40:14.965Z,17.79
2023-03-22T12:43:44.918Z,17.74
2023-03-22T12:47:21.152Z,17.78
2023-03-22T12:50:34.745Z,17.68
2023-03-22T12:53:43.036Z,17.81
2023-03-22T12:56:46.727Z,18.04
2023-03-22T12:59:53.187Z,18.13
2023-03-22T13:03:02.238Z,18.26
2023-03-22T13:06:27.301Z,18.05
2023-03-22T13:09:30.033Z,17.92
2023-03-22T13:12:34.305Z,17.96
2023-03-22T13:15:42.532Z,18.29
2023-03-22T13:18:45.614Z,18.40
2023-03-22T13:21:49.943Z,18.23
2023-03-22T13:25:14.386Z,18.34
2023-03-22T13:28:26.312Z,18.49
2023-03-22T13:31:53.435Z,18.42
2023-03-22T13:34:56.982Z,18.48
2023-03-22T13:38:04.244Z,18.66
2023-03-22T13:41:17.290Z,18.81
2023-03-22T13:44:28.619Z,18.94
2023-03-22T13:47:44.831Z,18.89
2023-03-22T13:50:48.292Z,18.86
2023-03-22T13:54:01.864Z,18.81
2023-03-22T13:57:04.371Z,18.63
2023-03-22T14:00:21.970Z,18.54
2023-03-22T14:03:40.787Z,18.45
2023-03-22T14:06:55.097Z,18.34
2023-03-22T14:10:02.243Z,18.16
2023-03-22T14:13:44.317Z,18.24
2023-03-22T14:16:51.666Z,18.18
2023-03-22T14:19:56.316Z,18.27
